Time;durP1;ratioP1;P1;durP2;ratioP2;P2;SDS_P1;SDS_P2;PMS_P1;PMS_P2;Temp;Humidity;BMP_temperature;BMP_pressure;BME280_temperature;BME280_humidity;BME280_pressure;Samples;Min_cycle;Max_cycle;Signal;HPM_P1;HPM_P2
2022/07/26 00:00:25;;;;;;;2.60;0.10;;;26.90;41.50;;;;;;5049968;28;20041;-58
2022/07/26 00:02:52;;;;;;;1.48;0.10;;;26.90;41.60;;;;;;5048209;28;20118;-58
2022/07/26 00:05:19;;;;;;;0.50;0.10;;;26.90;41.60;;;;;;5049322;28;20436;-58
2022/07/26 00:07:46;;;;;;;3.30;0.10;;;26.90;41.60;;;;;;5049667;28;20044;-59
2022/07/26 00:10:14;;;;;;;0.57;0.10;;;26.90;41.60;;;;;;5049910;28;20847;-60
2022/07/26 00:12:41;;;;;;;1.75;0.10;;;26.80;41.60;;;;;;5049722;28;20154;-58
2022/07/26 00:15:11;;;;;;;1.17;0.30;;;26.90;41.70;;;;;;5049341;28;20041;-59
2022/07/26 00:17:40;;;;;;;0.40;0.10;;;26.90;41.70;;;;;;5049333;28;20107;-59
2022/07/26 00:20:07;;;;;;;0.93;0.10;;;26.80;41.70;;;;;;5049257;28;20120;-58
2022/07/26 00:22:35;;;;;;;1.42;0.08;;;26.80;41.80;;;;;;5049094;28;20090;-59
2022/07/26 00:25:03;;;;;;;0.82;0.10;;;26.80;41.80;;;;;;5049303;28;20048;-58
2022/07/26 00:27:30;;;;;;;0.50;0.10;;;26.80;41.90;;;;;;5049359;28;20106;-58
2022/07/26 00:29:57;;;;;;;1.52;0.20;;;26.70;41.90;;;;;;5049203;28;20033;-59
2022/07/26 00:32:24;;;;;;;1.30;0.20;;;26.70;42.00;;;;;;5049059;28;20122;-59
2022/07/26 00:34:52;;;;;;;3.20;0.10;;;26.70;42.00;;;;;;5049108;28;20144;-58
2022/07/26 00:37:20;;;;;;;2.20;0.32;;;26.70;42.00;;;;;;5048877;28;20106;-59
2022/07/26 00:39:47;;;;;;;0.63;0.10;;;26.70;42.10;;;;;;5049409;28;20043;-59
2022/07/26 00:42:14;;;;;;;1.15;0.10;;;26.60;42.10;;;;;;5049111;28;20414;-57
2022/07/26 00:44:44;;;;;;;0.38;0.00;;;26.60;42.10;;;;;;5049050;28;20481;-56
2022/07/26 00:47:11;;;;;;;0.90;0.10;;;26.60;42.20;;;;;;5048809;28;20503;-57
2022/07/26 00:49:38;;;;;;;1.10;0.13;;;26.50;42.20;;;;;;5048860;28;20041;-58
2022/07/26 00:52:08;;;;;;;1.40;0.20;;;26.50;42.20;;;;;;5048679;28;20412;-57
2022/07/26 00:54:37;;;;;;;0.80;0.10;;;26.50;42.30;;;;;;5048810;28;20135;-58
2022/07/26 00:57:05;;;;;;;0.57;0.10;;;26.50;42.40;;;;;;5048797;28;20506;-58
2022/07/26 00:59:32;;;;;;;2.47;0.10;;;26.50;42.40;;;;;;5048967;28;20052;-57
2022/07/26 01:01:59;;;;;;;1.15;0.00;;;26.40;42.40;;;;;;5048637;28;20061;-58
2022/07/26 01:04:27;;;;;;;1.13;0.15;;;26.40;42.50;;;;;;5047065;28;20430;-57
2022/07/26 01:06:54;;;;;;;0.47;0.10;;;26.30;42.50;;;;;;5048187;28;20059;-57
2022/07/26 01:09:23;;;;;;;6.80;0.13;;;26.30;42.50;;;;;;5048558;28;20060;-56
2022/07/26 01:11:51;;;;;;;0.35;0.10;;;26.30;42.60;;;;;;5048576;28;20064;-57
2022/07/26 01:14:20;;;;;;;0.63;0.45;;;26.30;42.60;;;;;;5048234;28;20066;-57
2022/07/26 01:16:48;;;;;;;1.67;0.28;;;26.30;42.70;;;;;;5048274;28;20062;-58
2022/07/26 01:19:15;;;;;;;1.85;0.10;;;26.30;43.40;;;;;;5048377;28;20045;-58
2022/07/26 01:21:44;;;;;;;1.10;0.10;;;26.20;42.70;;;;;;5048061;28;20613;-58
2022/07/26 01:24:11;;;;;;;0.68;0.10;;;26.20;42.80;;;;;;5048559;28;20041;-58
2022/07/26 01:26:38;;;;;;;0.73;0.57;;;26.20;42.80;;;;;;5048423;28;20052;-59
2022/07/26 01:29:06;;;;;;;2.25;0.00;;;26.20;42.90;;;;;;5048028;28;20123;-59
2022/07/26 01:31:34;;;;;;;1.88;0.10;;;26.20;42.90;;;;;;5048373;28;20484;-60
2022/07/26 01:34:01;;;;;;;2.63;0.10;;;26.20;43.00;;;;;;5046701;28;20049;-57
2022/07/26 01:36:28;;;;;;;0.88;0.10;;;26.10;42.90;;;;;;5047964;28;20044;-60
2022/07/26 01:38:56;;;;;;;0.10;0.10;;;26.10;43.00;;;;;;5047935;28;20045;-60
2022/07/26 01:41:23;;;;;;;0.65;0.10;;;26.10;43.00;;;;;;5048134;28;20045;-59
2022/07/26 01:43:50;;;;;;;0.70;0.00;;;26.10;43.10;;;;;;5045919;28;20037;-60
2022/07/26 01:46:18;;;;;;;1.98;0.10;;;26.10;43.10;;;;;;5047672;28;20126;-59
2022/07/26 01:48:45;;;;;;;1.35;0.08;;;26.10;43.20;;;;;;5047690;28;20506;-59
2022/07/26 01:51:12;;;;;;;0.57;0.10;;;26.00;43.20;;;;;;5047650;28;20461;-59
2022/07/26 01:53:39;;;;;;;3.85;0.10;;;26.00;43.30;;;;;;5047066;28;20045;-59
2022/07/26 01:56:08;;;;;;;1.10;0.25;;;26.00;43.40;;;;;;5047182;28;20144;-59
2022/07/26 01:58:35;;;;;;;5.13;0.00;;;25.90;43.40;;;;;;5047443;28;20515;-60
2022/07/26 02:01:02;;;;;;;0.40;0.10;;;25.90;44.00;;;;;;5047608;28;20037;-59
2022/07/26 02:03:29;;;;;;;0.38;0.17;;;25.90;43.50;;;;;;5047202;28;20051;-58
2022/07/26 02:05:56;;;;;;;0.70;0.20;;;25.90;43.50;;;;;;5047084;28;20128;-58
2022/07/26 02:08:23;;;;;;;3.63;0.32;;;25.90;43.60;;;;;;5047317;28;20044;-58
2022/07/26 02:11:00;;;;;;;0.80;0.10;;;25.80;43.60;;;;;;5047401;28;20438;-58
2022/07/26 02:13:29;;;;;;;2.78;0.10;;;25.80;43.70;;;;;;5047319;28;20060;-58
2022/07/26 02:15:57;;;;;;;0.45;0.10;;;25.80;43.80;;;;;;5047072;28;20041;-59
2022/07/26 02:18:25;;;;;;;0.82;0.30;;;25.80;43.80;;;;;;5047229;28;20033;-58
2022/07/26 02:20:52;;;;;;;4.07;0.20;;;25.80;43.90;;;;;;5046966;28;20098;-59
2022/07/26 02:23:21;;;;;;;1.40;0.65;;;25.70;43.90;;;;;;5047273;28;20079;-59
2022/07/26 02:25:48;;;;;;;4.18;0.40;;;25.70;44.00;;;;;;5047299;28;20040;-59
2022/07/26 02:28:16;;;;;;;1.38;0.10;;;25.70;44.10;;;;;;5046787;28;20123;-59
2022/07/26 02:30:46;;;;;;;0.88;0.10;;;25.60;44.10;;;;;;5047062;28;20510;-59
2022/07/26 02:33:13;;;;;;;0.57;0.10;;;25.60;44.20;;;;;;5047135;28;20045;-59
2022/07/26 02:35:41;;;;;;;3.03;0.10;;;25.60;44.30;;;;;;5046879;28;20037;-59
2022/07/26 02:38:13;;;;;;;0.65;0.00;;;25.60;44.30;;;;;;5046674;28;20137;-59
2022/07/26 02:40:40;;;;;;;1.75;0.45;;;25.60;44.40;;;;;;5047036;28;20128;-59
2022/07/26 02:43:09;;;;;;;0.60;0.00;;;25.60;44.40;;;;;;5046583;28;20503;-59
2022/07/26 02:45:36;;;;;;;3.08;0.10;;;25.60;44.50;;;;;;5046738;28;20037;-59
2022/07/26 02:48:04;;;;;;;0.25;0.10;;;25.60;44.70;;;;;;5046775;28;20669;-58
2022/07/26 02:50:32;;;;;;;1.05;0.80;;;25.50;44.70;;;;;;5047014;28;20083;-60
2022/07/26 02:52:59;;;;;;;1.13;0.45;;;25.50;44.80;;;;;;5046493;28;20041;-60
2022/07/26 02:55:27;;;;;;;3.22;0.10;;;25.40;44.90;;;;;;5046508;28;20149;-60
2022/07/26 02:57:54;;;;;;;0.52;0.10;;;25.40;45.00;;;;;;5046480;28;20045;-59
2022/07/26 03:00:24;;;;;;;1.80;0.10;;;25.40;45.10;;;;;;5045061;28;20754;-58
2022/07/26 03:02:51;;;;;;;0.75;0.00;;;25.40;45.20;;;;;;5046557;28;20410;-59
2022/07/26 03:05:20;;;;;;;1.50;0.10;;;25.30;45.20;;;;;;5046543;28;20530;-59
2022/07/26 03:07:48;;;;;;;0.45;0.10;;;25.30;45.30;;;;;;5050718;28;20103;-58
2022/07/26 03:10:15;;;;;;;2.17;0.10;;;25.30;45.30;;;;;;5050276;28;20135;-58
2022/07/26 03:12:42;;;;;;;2.17;0.28;;;25.20;45.40;;;;;;5050381;28;20048;-58
2022/07/26 03:15:11;;;;;;;0.57;0.00;;;25.20;45.40;;;;;;5050565;28;20152;-58
2022/07/26 03:17:38;;;;;;;0.40;0.10;;;25.20;45.50;;;;;;5048905;28;20052;-57
2022/07/26 03:20:06;;;;;;;3.10;0.10;;;25.20;45.60;;;;;;5050702;28;20040;-57
2022/07/26 03:22:35;;;;;;;6.32;0.17;;;25.20;45.70;;;;;;5050084;28;20130;-56
2022/07/26 03:25:02;;;;;;;2.55;0.10;;;25.20;45.80;;;;;;5050294;28;20131;-56
2022/07/26 03:27:29;;;;;;;0.63;0.10;;;25.10;45.80;;;;;;5050458;28;20107;-57
2022/07/26 03:29:56;;;;;;;1.13;0.10;;;25.10;45.90;;;;;;5050466;28;20033;-57
2022/07/26 03:32:23;;;;;;;3.00;0.60;;;25.10;45.90;;;;;;5050138;28;20120;-56
2022/07/26 03:34:50;;;;;;;1.20;0.17;;;25.10;45.90;;;;;;5047466;28;20051;-57
2022/07/26 03:37:18;;;;;;;3.15;0.20;;;25.10;46.00;;;;;;5045011;28;20091;-58
2022/07/26 03:39:47;;;;;;;0.25;0.10;;;25.10;46.10;;;;;;5049492;28;20512;-60
2022/07/26 03:42:14;;;;;;;1.08;0.10;;;25.00;46.10;;;;;;5049996;28;20542;-58
2022/07/26 03:44:42;;;;;;;1.75;0.43;;;25.00;46.10;;;;;;5049854;28;20526;-58
2022/07/26 03:47:09;;;;;;;3.08;0.10;;;25.00;46.20;;;;;;5050384;28;20106;-59
2022/07/26 03:49:36;;;;;;;0.43;0.10;;;25.00;46.30;;;;;;5050113;28;20040;-59
2022/07/26 03:52:03;;;;;;;1.65;0.10;;;25.00;46.90;;;;;;5050009;28;20091;-59
2022/07/26 03:54:30;;;;;;;2.60;0.10;;;25.00;46.40;;;;;;5049329;28;20052;-60
2022/07/26 03:56:58;;;;;;;2.90;0.47;;;25.00;46.40;;;;;;5049313;28;20097;-58
2022/07/26 03:59:26;;;;;;;1.42;0.90;;;25.00;46.50;;;;;;5049884;28;20051;-58
2022/07/26 04:01:53;;;;;;;3.55;0.10;;;25.00;46.60;;;;;;5049696;28;20068;-60
2022/07/26 04:04:20;;;;;;;0.80;0.10;;;25.00;46.60;;;;;;5049639;28;20503;-58
2022/07/26 04:06:47;;;;;;;0.95;0.10;;;25.00;46.70;;;;;;5049600;28;20060;-58
2022/07/26 04:09:15;;;;;;;3.15;0.30;;;25.00;46.70;;;;;;5047807;28;20456;-59
2022/07/26 04:11:43;;;;;;;4.03;0.93;;;25.00;46.80;;;;;;5048467;28;20052;-59
2022/07/26 04:14:11;;;;;;;1.30;0.10;;;25.00;46.80;;;;;;5049435;28;20048;-59
2022/07/26 04:16:38;;;;;;;0.20;0.10;;;25.00;46.90;;;;;;5048849;28;20071;-59
2022/07/26 04:19:05;;;;;;;1.73;0.10;;;25.00;47.00;;;;;;5047778;28;20142;-59
2022/07/26 04:21:32;;;;;;;1.17;0.20;;;24.90;47.00;;;;;;5049318;28;20138;-60
2022/07/26 04:24:00;;;;;;;0.60;0.50;;;24.90;47.10;;;;;;5049288;28;20077;-60
2022/07/26 04:26:28;;;;;;;2.85;0.10;;;24.90;47.20;;;;;;5049146;28;20033;-59
2022/07/26 04:28:55;;;;;;;2.28;0.20;;;24.90;47.40;;;;;;5049349;28;20041;-60
2022/07/26 04:31:24;;;;;;;1.70;0.10;;;24.90;47.50;;;;;;5049476;28;20095;-60
2022/07/26 04:33:51;;;;;;;2.22;0.20;;;24.90;47.50;;;;;;5049221;28;20503;-60
2022/07/26 04:36:18;;;;;;;2.15;0.17;;;24.90;47.50;;;;;;5048905;28;20044;-60
2022/07/26 04:38:45;;;;;;;2.58;0.20;;;24.90;47.60;;;;;;5051704;28;20127;-61
2022/07/26 04:41:13;;;;;;;2.50;0.10;;;24.90;47.60;;;;;;5053473;28;20064;-60
2022/07/26 04:43:40;;;;;;;6.25;0.75;;;24.90;47.70;;;;;;5048387;28;20516;-60
2022/07/26 04:46:07;;;;;;;2.95;0.55;;;24.90;47.70;;;;;;5046918;28;20049;-59
2022/07/26 04:48:37;;;;;;;4.30;0.30;;;24.90;47.80;;;;;;5048819;28;20072;-60
2022/07/26 04:51:04;;;;;;;2.42;0.10;;;24.90;47.90;;;;;;5048661;28;20056;-59
2022/07/26 04:53:32;;;;;;;4.22;0.10;;;24.90;47.90;;;;;;5053721;28;20040;-59
2022/07/26 04:55:59;;;;;;;1.30;0.10;;;24.90;47.90;;;;;;5056605;28;20048;-60
2022/07/26 04:58:26;;;;;;;1.20;0.20;;;24.90;48.00;;;;;;5043254;28;20068;-60
2022/07/26 05:00:53;;;;;;;2.75;0.20;;;24.90;48.10;;;;;;5045137;28;20040;-60
2022/07/26 05:03:20;;;;;;;1.20;0.10;;;24.90;48.10;;;;;;5073328;28;20076;-61
2022/07/26 05:05:49;;;;;;;2.33;0.45;;;24.90;48.10;;;;;;5042399;28;20037;-60
2022/07/26 05:08:16;;;;;;;1.08;0.10;;;24.90;48.20;;;;;;5040500;28;20592;-57
2022/07/26 05:10:43;;;;;;;6.07;0.20;;;24.90;49.00;;;;;;5040301;28;20147;-52
2022/07/26 05:13:10;;;;;;;9.40;0.20;;;25.00;49.10;;;;;;5036614;28;20036;-59
2022/07/26 05:15:37;;;;;;;3.88;0.43;;;25.10;49.20;;;;;;5037780;28;20051;-54
2022/07/26 05:18:07;;;;;;;3.03;0.30;;;25.30;49.00;;;;;;5042727;28;20282;-51
2022/07/26 05:20:34;;;;;;;2.25;0.20;;;25.60;48.60;;;;;;5041878;28;20044;-53
2022/07/26 05:23:03;;;;;;;1.67;0.15;;;26.00;47.90;;;;;;5042407;28;20186;-58
2022/07/26 05:25:30;;;;;;;3.03;0.10;;;26.50;47.20;;;;;;5040851;28;20079;-56
2022/07/26 05:27:57;;;;;;;2.90;0.10;;;26.90;46.30;;;;;;5041991;28;20404;-57
2022/07/26 05:30:24;;;;;;;0.77;0.20;;;27.40;45.90;;;;;;5043091;28;20040;-58
2022/07/26 05:32:51;;;;;;;1.70;0.20;;;27.90;44.40;;;;;;5043794;28;20110;-59
2022/07/26 05:35:18;;;;;;;1.23;0.10;;;28.30;43.60;;;;;;5040525;28;20044;-60
2022/07/26 05:37:46;;;;;;;2.35;0.20;;;28.70;42.80;;;;;;5041855;28;20729;-51
2022/07/26 05:40:14;;;;;;;1.40;0.45;;;29.10;42.10;;;;;;5030615;28;20064;-53
2022/07/26 05:42:42;;;;;;;3.00;0.10;;;29.40;41.50;;;;;;5039641;28;20506;-52
2022/07/26 05:45:10;;;;;;;1.08;0.00;;;29.80;40.90;;;;;;5042308;28;20041;-53
2022/07/26 05:47:37;;;;;;;2.67;0.10;;;30.10;40.30;;;;;;5043596;28;20045;-56
2022/07/26 05:50:05;;;;;;;2.60;0.10;;;30.40;39.70;;;;;;5044000;28;20036;-54
2022/07/26 05:52:33;;;;;;;2.80;0.38;;;30.60;39.10;;;;;;5046606;28;20047;-52
2022/07/26 05:55:01;;;;;;;1.38;0.10;;;30.70;38.80;;;;;;5046914;28;20114;-53
2022/07/26 05:57:29;;;;;;;4.88;0.10;;;30.80;38.70;;;;;;5049133;28;20037;-54
2022/07/26 05:59:56;;;;;;;2.53;0.25;;;30.70;38.60;;;;;;5043052;28;20036;-58
2022/07/26 06:02:23;;;;;;;6.40;0.32;;;30.60;38.60;;;;;;5041557;28;20068;-58
2022/07/26 06:04:50;;;;;;;0.98;0.20;;;30.60;38.70;;;;;;5045314;28;20049;-59
2022/07/26 06:07:17;;;;;;;1.15;0.10;;;30.50;38.80;;;;;;5047643;28;20457;-59
2022/07/26 06:09:45;;;;;;;4.15;0.90;;;30.40;38.90;;;;;;5045708;28;20044;-60
2022/07/26 06:12:12;;;;;;;2.30;1.20;;;30.30;39.00;;;;;;5045284;28;20044;-55
2022/07/26 06:14:40;;;;;;;4.80;0.28;;;30.20;39.80;;;;;;5038278;28;20047;-51
2022/07/26 06:17:07;;;;;;;2.30;0.93;;;30.10;39.30;;;;;;5040567;28;20138;-55
2022/07/26 06:19:35;;;;;;;2.88;0.28;;;30.00;39.50;;;;;;5041264;28;20515;-62
2022/07/26 06:22:02;;;;;;;2.95;0.57;;;29.90;39.70;;;;;;5040104;28;20048;-62
2022/07/26 06:24:29;;;;;;;2.67;0.43;;;29.80;40.40;;;;;;5037978;28;20152;-62
2022/07/26 06:26:56;;;;;;;2.20;0.20;;;29.70;40.00;;;;;;5039555;28;20045;-61
2022/07/26 06:29:24;;;;;;;1.95;0.40;;;29.60;40.40;;;;;;5039116;28;20362;-61
2022/07/26 06:31:52;;;;;;;4.65;0.17;;;29.60;40.30;;;;;;5040312;28;20040;-62
2022/07/26 06:34:19;;;;;;;1.10;0.22;;;29.50;40.40;;;;;;5037852;28;20041;-62
2022/07/26 06:36:46;;;;;;;2.35;0.10;;;29.40;40.50;;;;;;5039727;28;20117;-63
2022/07/26 06:39:13;;;;;;;3.17;0.20;;;29.40;40.70;;;;;;5041494;28;20041;-62
2022/07/26 06:41:40;;;;;;;2.17;0.10;;;29.30;40.80;;;;;;5039942;28;20123;-62
2022/07/26 06:44:07;;;;;;;3.97;0.20;;;29.20;40.90;;;;;;5040352;28;20043;-62
2022/07/26 06:46:35;;;;;;;7.55;0.20;;;29.20;41.00;;;;;;5041321;28;20055;-63
2022/07/26 06:49:03;;;;;;;1.60;0.25;;;29.10;41.10;;;;;;5040950;28;20037;-63
2022/07/26 06:51:30;;;;;;;5.68;0.70;;;29.10;41.30;;;;;;5040589;28;20055;-63
2022/07/26 06:53:57;;;;;;;5.85;0.60;;;29.00;41.40;;;;;;5040331;28;20033;-62
2022/07/26 06:56:24;;;;;;;5.22;0.32;;;29.00;41.40;;;;;;5038410;28;20541;-62
2022/07/26 06:58:54;;;;;;;1.40;0.10;;;29.00;41.50;;;;;;5041878;28;20044;-62
2022/07/26 07:01:21;;;;;;;0.57;0.43;;;28.90;41.50;;;;;;5042097;28;20048;-61
2022/07/26 07:03:48;;;;;;;2.47;0.28;;;28.90;41.70;;;;;;5041715;28;20834;-61
2022/07/26 07:06:17;;;;;;;6.93;0.20;;;28.90;41.80;;;;;;5039950;28;20477;-61
2022/07/26 07:08:44;;;;;;;3.15;0.30;;;28.80;41.80;;;;;;5041550;28;20047;-61
2022/07/26 07:11:11;;;;;;;3.97;0.20;;;28.80;41.90;;;;;;5041258;28;20047;-61
2022/07/26 07:13:38;;;;;;;3.28;0.47;;;28.80;42.00;;;;;;5040394;28;20136;-61
2022/07/26 07:16:06;;;;;;;3.15;0.22;;;28.70;42.00;;;;;;5040141;28;20092;-61
2022/07/26 07:18:33;;;;;;;1.85;0.40;;;28.70;42.10;;;;;;5040990;28;20048;-61
2022/07/26 07:21:00;;;;;;;3.30;0.28;;;28.60;42.10;;;;;;5042086;28;20044;-61
2022/07/26 07:23:29;;;;;;;2.65;0.22;;;28.60;42.10;;;;;;5040858;28;20067;-62
2022/07/26 07:25:56;;;;;;;2.60;0.25;;;28.60;42.20;;;;;;5038584;28;20557;-61
2022/07/26 07:28:23;;;;;;;0.30;0.10;;;28.60;42.30;;;;;;5041278;28;20414;-60
2022/07/26 07:30:50;;;;;;;8.48;0.57;;;28.60;42.40;;;;;;5040167;28;20051;-60
2022/07/26 07:33:17;;;;;;;4.75;0.10;;;28.50;42.30;;;;;;5042025;28;20602;-61
2022/07/26 07:35:44;;;;;;;1.85;0.35;;;28.50;42.40;;;;;;5039293;28;20136;-60
2022/07/26 07:38:11;;;;;;;0.52;0.10;;;28.50;42.50;;;;;;5041132;28;20041;-61
2022/07/26 07:40:39;;;;;;;4.35;0.20;;;28.50;42.50;;;;;;5041212;28;20045;-60
2022/07/26 07:43:06;;;;;;;2.95;0.17;;;28.50;42.50;;;;;;5041990;28;20041;-60
2022/07/26 07:45:33;;;;;;;0.35;0.10;;;28.50;42.60;;;;;;5036686;28;20053;-60
2022/07/26 07:48:00;;;;;;;3.53;0.20;;;28.50;42.50;;;;;;5041988;28;20041;-60
2022/07/26 07:50:28;;;;;;;1.20;0.10;;;28.40;42.50;;;;;;5041445;28;20570;-60
2022/07/26 07:52:55;;;;;;;2.65;0.40;;;28.40;42.50;;;;;;5041225;28;20037;-60
2022/07/26 07:55:22;;;;;;;4.00;0.20;;;28.40;42.60;;;;;;5042735;28;20087;-59
2022/07/26 07:57:50;;;;;;;4.82;0.10;;;28.40;42.60;;;;;;5045424;28;20578;-60
2022/07/26 08:00:18;;;;;;;1.08;0.10;;;28.40;42.60;;;;;;5044829;28;20099;-61
2022/07/26 08:02:46;;;;;;;0.38;0.10;;;28.40;42.70;;;;;;5045397;28;20143;-61
2022/07/26 08:05:14;;;;;;;3.47;0.20;;;28.40;42.60;;;;;;5042240;28;20047;-60
2022/07/26 08:07:41;;;;;;;3.90;0.40;;;28.30;42.40;;;;;;5042861;28;20037;-60
2022/07/26 08:10:09;;;;;;;3.40;0.10;;;28.30;42.40;;;;;;5044655;28;20056;-59
2022/07/26 08:12:36;;;;;;;1.90;0.43;;;28.40;42.50;;;;;;5045623;28;20082;-59
2022/07/26 08:15:06;;;;;;;3.63;0.30;;;28.30;42.40;;;;;;5041518;28;20041;-59
2022/07/26 08:17:33;;;;;;;2.50;0.45;;;28.30;42.50;;;;;;5044959;28;20138;-60
2022/07/26 08:20:00;;;;;;;2.08;0.40;;;28.40;43.00;;;;;;5045205;28;20426;-60
2022/07/26 08:22:27;;;;;;;3.33;0.13;;;28.40;42.50;;;;;;5045297;28;20533;-60
2022/07/26 08:24:54;;;;;;;2.90;0.75;;;28.30;42.30;;;;;;5041823;28;20045;-59
2022/07/26 08:27:21;;;;;;;2.38;0.98;;;28.40;42.30;;;;;;5045485;28;20514;-60
2022/07/26 08:29:48;;;;;;;3.28;0.40;;;28.40;42.20;;;;;;5043218;28;20052;-60
2022/07/26 08:32:17;;;;;;;3.63;0.38;;;28.40;42.10;;;;;;5044470;28;20186;-60
2022/07/26 08:34:44;;;;;;;1.55;0.32;;;28.40;42.10;;;;;;5042281;28;20520;-59
2022/07/26 08:37:12;;;;;;;1.75;0.10;;;28.40;42.10;;;;;;5045109;28;20072;-60
2022/07/26 08:39:39;;;;;;;3.97;0.10;;;28.40;42.00;;;;;;5044472;28;20507;-60
2022/07/26 08:42:13;;;;;;;4.38;0.45;;;28.50;42.10;;;;;;5043829;28;20053;-60
2022/07/26 08:44:42;;;;;;;3.03;0.10;;;28.50;42.20;;;;;;5045289;28;20124;-59
2022/07/26 08:47:11;;;;;;;2.63;0.75;;;28.50;42.50;;;;;;5044344;28;20033;-60
2022/07/26 08:49:40;;;;;;;2.47;0.52;;;28.50;42.50;;;;;;5043652;28;20123;-54
2022/07/26 08:52:08;;;;;;;1.63;0.22;;;28.50;42.50;;;;;;5044948;28;20041;-55
2022/07/26 08:54:36;;;;;;;8.55;0.47;;;28.50;42.50;;;;;;5045003;28;20124;-55
2022/07/26 08:57:03;;;;;;;0.65;0.28;;;28.50;42.20;;;;;;5043586;28;20046;-53
2022/07/26 08:59:30;;;;;;;3.08;0.20;;;28.50;42.10;;;;;;5035134;28;20110;-52
2022/07/26 09:01:59;;;;;;;3.88;0.10;;;28.50;42.70;;;;;;5048489;28;20055;-53
2022/07/26 09:04:28;;;;;;;7.30;0.85;;;28.40;42.10;;;;;;5048430;28;20125;-53
2022/07/26 09:07:02;;;;;;;1.30;0.10;;;28.30;42.10;;;;;;5048492;28;20063;-54
2022/07/26 09:09:30;;;;;;;3.40;0.10;;;28.30;42.10;;;;;;5049014;28;20083;-59
2022/07/26 09:11:58;;;;;;;3.30;0.20;;;28.20;42.30;;;;;;5035760;28;20120;-55
2022/07/26 09:14:37;;;;;;;5.93;0.20;;;28.20;42.60;;;;;;5047641;28;20051;-53
2022/07/26 09:17:04;;;;;;;2.65;0.30;;;28.20;42.90;;;;;;5042285;28;20106;-52
2022/07/26 09:19:33;;;;;;;1.80;0.15;;;28.20;43.20;;;;;;5041943;28;20041;-56
2022/07/26 09:22:09;;;;;;;7.15;0.10;;;28.10;43.80;;;;;;5040942;28;20098;-53
2022/07/26 09:24:37;;;;;;;;;;;28.10;43.60;;;;;;5044017;28;20051;-50
2022/07/26 09:27:06;;;;;;;2.25;0.35;;;28.10;43.50;;;;;;5047224;28;20453;-53
2022/07/26 09:29:44;;;;;;;2.65;0.10;;;28.00;43.70;;;;;;5048384;28;20068;-52
2022/07/26 09:32:15;;;;;;;1.70;0.43;;;28.00;43.80;;;;;;5047820;28;20145;-52
2022/07/26 09:34:43;;;;;;;2.47;0.43;;;28.10;43.90;;;;;;5048645;28;20414;-51
2022/07/26 09:37:11;;;;;;;1.75;0.20;;;28.10;44.20;;;;;;5048485;28;20067;-50
2022/07/26 09:39:58;;;;;;;3.85;0.20;;;28.00;44.20;;;;;;5048256;28;20136;-53
2022/07/26 09:42:26;;;;;;;0.47;0.10;;;28.00;44.40;;;;;;5048283;28;20511;-51
2022/07/26 09:44:54;;;;;;;5.03;0.47;;;28.00;44.30;;;;;;5048301;28;20506;-53
2022/07/26 09:47:22;;;;;;;2.20;1.20;;;28.00;44.10;;;;;;5048393;28;20064;-51
2022/07/26 09:49:49;;;;;;;4.13;0.40;;;28.00;44.10;;;;;;5048157;28;20045;-50
2022/07/26 09:52:20;;;;;;;1.98;0.20;;;28.00;44.10;;;;;;5047907;28;20502;-53
2022/07/26 09:54:48;;;;;;;1.80;0.10;;;28.00;44.00;;;;;;5042400;28;20087;-53
2022/07/26 09:57:17;;;;;;;0.57;0.20;;;28.00;44.10;;;;;;5047576;28;20613;-51
2022/07/26 09:59:44;;;;;;;1.95;0.20;;;28.10;44.30;;;;;;5046614;28;20052;-54
2022/07/26 10:02:13;;;;;;;1.85;0.30;;;28.00;44.20;;;;;;5047729;28;20033;-52
2022/07/26 10:04:41;;;;;;;1.13;0.17;;;28.00;44.30;;;;;;5047683;28;20154;-54
2022/07/26 10:07:09;;;;;;;5.25;0.45;;;28.00;44.30;;;;;;5046516;28;20041;-52
2022/07/26 10:09:43;;;;;;;3.70;0.43;;;28.00;44.30;;;;;;5047728;28;20048;-52
2022/07/26 10:12:15;;;;;;;1.05;0.30;;;28.00;44.20;;;;;;5046098;28;20048;-54
2022/07/26 10:14:45;;;;;;;1.88;0.30;;;28.00;44.40;;;;;;5047533;28;20110;-52
2022/07/26 10:17:46;;;;;;;2.55;0.10;;;28.00;44.40;;;;;;5047898;28;20513;-52
2022/07/26 10:20:39;;;;;;;2.00;0.30;;;28.00;44.30;;;;;;5047385;28;20051;-55
2022/07/26 10:23:32;;;;;;;2.97;0.10;;;28.00;44.30;;;;;;5043710;28;20041;-52
2022/07/26 10:26:01;;;;;;;1.27;0.10;;;28.00;44.00;;;;;;5047196;28;20049;-53
2022/07/26 10:28:30;;;;;;;1.48;0.10;;;28.00;43.80;;;;;;5047858;28;20483;-54
2022/07/26 10:31:28;;;;;;;2.58;0.30;;;28.00;43.70;;;;;;5047426;28;20062;-54
2022/07/26 10:33:56;;;;;;;0.75;0.10;;;28.10;43.40;;;;;;5044887;28;20854;-52
2022/07/26 10:36:29;;;;;;;2.55;0.20;;;28.10;43.60;;;;;;5047387;28;20052;-52
2022/07/26 10:39:02;;;;;;;1.23;0.20;;;28.10;43.40;;;;;;5047499;28;20481;-53
2022/07/26 10:41:36;;;;;;;2.90;0.20;;;28.10;43.60;;;;;;5047118;28;20073;-54
2022/07/26 10:44:13;;;;;;;1.08;0.30;;;28.10;43.70;;;;;;5047472;28;20061;-54
2022/07/26 10:46:55;;;;;;;1.88;0.20;;;28.10;43.70;;;;;;5041367;28;20037;-53
2022/07/26 10:49:32;;;;;;;3.30;0.20;;;28.20;44.00;;;;;;5045853;28;20120;-55
2022/07/26 10:52:08;;;;;;;0.73;0.22;;;28.10;43.70;;;;;;5047614;28;20120;-54
2022/07/26 10:55:16;;;;;;;0.88;0.10;;;28.10;43.70;;;;;;5046996;28;20455;-56
2022/07/26 10:57:44;;;;;;;;;;;28.20;43.70;;;;;;5047704;28;20055;-53
2022/07/26 11:00:18;;;;;;;0.13;0.10;;;28.10;43.70;;;;;;5046851;28;19920;-53
2022/07/26 11:02:49;;;;;;;3.55;0.32;;;28.10;43.90;;;;;;5047246;28;20122;-55
2022/07/26 11:05:18;;;;;;;1.13;0.20;;;28.10;43.70;;;;;;5047121;28;20132;-53
2022/07/26 11:07:54;;;;;;;1.92;0.10;;;28.20;43.80;;;;;;5046999;28;20051;-53
2022/07/26 11:10:26;;;;;;;0.40;0.10;;;28.20;43.80;;;;;;5045563;28;20048;-54
2022/07/26 11:13:10;;;;;;;2.60;0.65;;;28.20;43.80;;;;;;5039611;28;20475;-54
2022/07/26 11:15:39;;;;;;;1.63;0.10;;;28.20;43.80;;;;;;5046900;28;20087;-60
2022/07/26 11:18:12;;;;;;;0.85;0.10;;;28.20;43.80;;;;;;5047215;28;20060;-51
2022/07/26 11:20:39;;;;;;;0.20;0.10;;;28.30;43.90;;;;;;5047020;28;20076;-52
2022/07/26 11:23:34;;;;;;;0.50;0.10;;;28.30;43.90;;;;;;5045430;28;20498;-51
2022/07/26 11:26:07;;;;;;;1.00;0.45;;;28.30;43.80;;;;;;5045906;28;20107;-54
2022/07/26 11:28:51;;;;;;;0.30;0.10;;;28.30;43.90;;;;;;5044916;28;20060;-52
2022/07/26 11:31:20;;;;;;;0.52;0.20;;;28.40;43.90;;;;;;5050773;28;20473;-54
2022/07/26 11:33:50;;;;;;;0.93;0.10;;;28.40;44.10;;;;;;5050838;28;20041;-53
2022/07/26 11:36:19;;;;;;;0.52;0.22;;;28.40;43.90;;;;;;5050527;28;20045;-52
2022/07/26 11:38:49;;;;;;;1.00;0.20;;;28.40;43.90;;;;;;5049425;28;20059;-55
2022/07/26 11:41:19;;;;;;;0.38;0.38;;;28.40;43.60;;;;;;5050758;28;20047;-53
2022/07/26 11:43:47;;;;;;;0.47;0.47;;;28.50;43.60;;;;;;5050446;28;20048;-55
2022/07/26 11:46:14;;;;;;;2.28;0.30;;;28.50;43.40;;;;;;5050884;28;20041;-55
2022/07/26 11:48:46;;;;;;;2.15;0.10;;;28.50;43.40;;;;;;5048289;28;20511;-52
2022/07/26 11:51:16;;;;;;;1.75;0.28;;;28.50;43.20;;;;;;5080403;28;20045;-52
2022/07/26 11:53:43;;;;;;;1.60;0.30;;;28.50;43.10;;;;;;5050467;28;20128;-50
2022/07/26 11:56:16;;;;;;;0.55;0.10;;;28.50;42.80;;;;;;5050164;28;20072;-53
2022/07/26 11:58:45;;;;;;;1.35;0.20;;;28.50;42.70;;;;;;5050760;28;20084;-52
2022/07/26 12:01:15;;;;;;;2.40;0.10;;;28.60;42.80;;;;;;5050328;28;20037;-53
2022/07/26 12:03:44;;;;;;;0.90;0.20;;;28.60;43.00;;;;;;5050479;28;20045;-55
2022/07/26 12:06:15;;;;;;;2.92;0.10;;;28.60;42.80;;;;;;5050087;28;20039;-55
2022/07/26 12:08:45;;;;;;;0.32;0.10;;;28.60;43.40;;;;;;5050230;28;20534;-51
2022/07/26 12:11:13;;;;;;;1.15;0.20;;;28.60;42.90;;;;;;5035497;28;20037;-56
2022/07/26 12:13:55;;;;;;;1.58;0.30;;;28.60;42.90;;;;;;5050426;28;20048;-56
2022/07/26 12:16:44;;;;;;;0.28;0.10;;;28.70;42.90;;;;;;5043770;28;20073;-54
2022/07/26 12:19:26;;;;;;;0.15;0.10;;;28.70;42.80;;;;;;5048678;28;20053;-53
2022/07/26 12:21:54;;;;;;;0.10;0.10;;;28.70;42.40;;;;;;5049531;28;20087;-52
2022/07/26 12:24:42;;;;;;;4.13;0.35;;;28.60;42.20;;;;;;5049899;28;20511;-55
2022/07/26 12:27:11;;;;;;;0.50;0.10;;;28.70;41.90;;;;;;5050196;28;20106;-54
2022/07/26 12:29:40;;;;;;;0.30;0.10;;;28.70;41.70;;;;;;5049913;28;20049;-55
2022/07/26 12:32:11;;;;;;;0.20;0.08;;;28.70;41.90;;;;;;5048792;28;20140;-53
2022/07/26 12:34:39;;;;;;;0.30;0.10;;;28.70;42.00;;;;;;5049811;28;20132;-52
2022/07/26 12:37:12;;;;;;;0.93;0.38;;;28.70;42.20;;;;;;5047686;28;20060;-55
2022/07/26 12:39:40;;;;;;;1.13;0.40;;;28.70;43.00;;;;;;5049562;28;20044;-56
2022/07/26 12:42:29;;;;;;;1.27;0.40;;;28.70;42.50;;;;;;5049843;28;20047;-55
2022/07/26 12:44:57;;;;;;;0.65;0.20;;;28.80;42.70;;;;;;5041291;28;20132;-54
2022/07/26 12:47:26;;;;;;;0.80;0.80;;;28.80;42.90;;;;;;5049947;28;20418;-56
2022/07/26 12:49:53;;;;;;;1.30;0.10;;;28.80;42.90;;;;;;5049773;28;20582;-55
2022/07/26 12:52:22;;;;;;;1.65;0.10;;;28.80;43.00;;;;;;5034826;28;20495;-54
2022/07/26 12:54:52;;;;;;;1.40;0.10;;;28.80;43.00;;;;;;5042595;28;20518;-55
2022/07/26 12:57:20;;;;;;;0.38;0.38;;;28.90;43.00;;;;;;5044356;28;20044;-55